Time;durP1;ratioP1;P1;durP2;ratioP2;P2;SDS_P1;SDS_P2;PMS_P1;PMS_P2;Temp;Humidity;BMP_temperature;BMP_pressure;BME280_temperature;BME280_humidity;BME280_pressure;Samples;Min_cycle;Max_cycle;Signal;HPM_P1;HPM_P2
2021/12/15 00:00:20;;;;;;;;;;;;;;;11.30;76.93;101004.09;5053342;28;19927;-59
2021/12/15 00:02:50;;;;;;;;;;;;;;;11.30;77.10;101010.25;5053225;28;19924;-60
2021/12/15 00:05:22;;;;;;;;;;;;;;;11.30;76.90;101010.25;5052364;28;19946;-61
2021/12/15 00:07:49;;;;;;;;;;;;;;;11.32;77.11;101008.38;5053659;28;19927;-61
2021/12/15 00:10:16;;;;;;;;;;;;;;;11.33;77.13;101011.88;5053125;28;19978;-63
2021/12/15 00:12:43;;;;;;;;;;;;;;;11.31;77.13;101003.16;5053217;28;19931;-61
2021/12/15 00:15:10;;;;;;;;;;;;;;;11.31;76.96;101004.03;5053321;28;20373;-60
2021/12/15 00:17:37;;;;;;;;;;;;;;;11.32;77.21;100997.84;5053128;28;19924;-63
2021/12/15 00:20:05;;;;;;;;;;;;;;;11.31;76.85;100996.13;5053228;28;20388;-60
2021/12/15 00:22:31;;;;;;;;;;;;;;;11.31;77.01;100990.84;5053439;28;19928;-59
2021/12/15 00:24:58;;;;;;;;;;;;;;;11.31;76.83;101004.03;5053123;28;19925;-59
2021/12/15 00:27:24;;;;;;;;;;;;;;;11.32;76.97;101005.75;5052900;28;19927;-59
2021/12/15 00:29:51;;;;;;;;;;;;;;;11.31;77.05;101005.81;5051518;28;20369;-60
2021/12/15 00:32:17;;;;;;;;;;;;;;;11.32;77.05;101005.75;5053089;28;19928;-61
2021/12/15 00:34:45;;;;;;;;;;;;;;;11.33;77.19;101010.09;5053103;28;19982;-59
2021/12/15 00:37:11;;;;;;;;;;;;;;;11.34;77.16;101011.81;5053038;28;20364;-60
2021/12/15 00:39:38;;;;;;;;;;;;;;;11.34;77.14;101003.88;5052415;28;20381;-60
2021/12/15 00:42:05;;;;;;;;;;;;;;;11.36;77.21;101008.28;5052829;28;19924;-60
2021/12/15 00:44:32;;;;;;;;;;;;;;;11.34;76.91;101009.16;5052630;28;19925;-60
2021/12/15 00:46:58;;;;;;;;;;;;;;;11.37;77.03;101009.97;5052645;28;20446;-60
2021/12/15 00:49:25;;;;;;;;;;;;;;;11.37;77.26;101009.97;5052597;28;19925;-60
2021/12/15 00:51:51;;;;;;;;;;;;;;;11.38;77.11;101012.56;5052674;28;19924;-62
2021/12/15 00:54:18;;;;;;;;;;;;;;;11.38;77.11;101012.56;5052490;28;19983;-59
2021/12/15 00:56:44;;;;;;;;;;;;;;;11.38;76.96;101017.84;5052718;28;19967;-59
2021/12/15 00:59:11;;;;;;;;;;;;;;;11.39;76.80;101019.53;5052058;28;19967;-60
2021/12/15 01:01:39;;;;;;;;;;;;;;;11.40;76.96;101020.41;5052774;28;19920;-61
2021/12/15 01:04:06;;;;;;;;;;;;;;;11.39;76.94;101019.53;5050971;28;19924;-60
2021/12/15 01:06:33;;;;;;;;;;;;;;;11.39;77.07;101013.41;5052351;28;19932;-59
2021/12/15 01:09:03;;;;;;;;;;;;;;;11.40;76.94;101020.41;5052319;28;19924;-60
2021/12/15 01:22:21;;;;;;;;;;;;;;;11.42;77.12;101013.28;5051961;28;19978;-60
2021/12/15 01:24:48;;;;;;;;;;;;;;;11.45;77.00;101018.44;5052078;28;19947;-59
2021/12/15 01:27:15;;;;;;;;;;;;;;;11.44;77.10;101011.47;5051733;28;20312;-60
2021/12/15 01:29:41;;;;;;;;;;;;;;;11.45;76.98;101021.91;5051712;28;19928;-60
2021/12/15 01:32:08;;;;;;;;;;;;;;;11.45;77.01;101018.44;5052039;28;19921;-60
2021/12/15 01:34:34;;;;;;;;;;;;;;;11.44;77.03;101012.28;5051478;28;19951;-61
2021/12/15 01:37:01;;;;;;;;;;;;;;;11.46;77.09;101028.94;5052115;28;20369;-61
2021/12/15 01:39:28;;;;;;;;;;;;;;;11.46;77.09;101028.94;5051151;28;19921;-60
2021/12/15 01:41:55;;;;;;;;;;;;;;;11.46;77.08;101023.66;5051689;28;19927;-61
2021/12/15 01:46:58;;;;;;;;;;;;;;;11.47;77.10;101025.38;5051745;28;19921;-60
2021/12/15 01:49:25;;;;;;;;;;;;;;;11.46;77.00;101023.66;5051412;28;19932;-59
2021/12/15 01:51:52;;;;;;;;;;;;;;;11.48;76.96;101018.31;5051694;28;19974;-59
2021/12/15 01:54:19;;;;;;;;;;;;;;;11.47;77.39;101022.72;5050499;28;19925;-62
2021/12/15 01:56:46;;;;;;;;;;;;;;;11.47;76.97;101014.81;5050338;28;19921;-59
2021/12/15 01:59:13;;;;;;;;;;;;;;;11.46;76.81;101025.44;5051155;28;19932;-61
2021/12/15 02:01:40;;;;;;;;;;;;;;;11.46;77.10;101015.75;5051058;28;19966;-60
2021/12/15 02:04:07;;;;;;;;;;;;;;;11.48;76.96;101018.31;5051317;28;19920;-60
2021/12/15 02:06:41;;;;;;;;;;;;;;;11.48;76.89;101023.59;5051051;28;19920;-59
2021/12/15 02:09:08;;;;;;;;;;;;;;;11.48;76.81;101023.59;5050028;28;20039;-59
2021/12/15 02:11:35;;;;;;;;;;;;;;;11.48;77.00;101023.59;5050952;28;20388;-61
2021/12/15 02:14:02;;;;;;;;;;;;;;;11.48;76.93;101018.31;5051178;28;19975;-60
2021/12/15 02:16:29;;;;;;;;;;;;;;;11.49;76.91;101019.16;5051152;28;19951;-59
2021/12/15 02:18:55;;;;;;;;;;;;;;;11.47;76.79;101019.22;5049650;28;19925;-60
2021/12/15 02:21:24;;;;;;;;;;;;;;;11.47;76.79;101020.09;5049508;28;19927;-60
2021/12/15 02:23:55;;;;;;;;;;;;;;;11.47;76.87;101019.22;5049855;28;19940;-61
2021/12/15 02:26:27;;;;;;;;;;;;;;;11.46;76.73;101020.16;5051249;28;19928;-61
2021/12/15 02:28:56;;;;;;;;;;;;;;;11.45;76.63;101018.44;5050241;28;19972;-60
2021/12/15 02:39:11;;;;;;;;;;;;;;;11.40;76.50;101020.41;5050783;28;19925;-63
2021/12/15 02:41:39;;;;;;;;;;;;;;;11.40;76.48;101020.41;5049453;28;19974;-59
2021/12/15 02:44:10;;;;;;;;;;;;;;;11.39;76.19;101023.94;5049832;28;19925;-60
2021/12/15 02:46:37;;;;;;;;;;;;;;;11.39;76.62;101016.03;5049479;28;19925;-60
2021/12/15 02:49:04;;;;;;;;;;;;;;;11.39;76.57;101014.28;5050938;28;19925;-61
2021/12/15 02:51:32;;;;;;;;;;;;;;;11.37;76.69;101016.13;5050754;28;20014;-60
2021/12/15 02:53:59;;;;;;;;;;;;;;;11.38;76.47;101022.22;5055028;28;19920;-61
2021/12/15 02:56:26;;;;;;;;;;;;;;;11.37;76.54;101024.03;5054868;28;19998;-59
2021/12/15 02:58:58;;;;;;;;;;;;;;;11.37;76.49;101017.88;5054856;28;19924;-60
2021/12/15 03:01:36;;;;;;;;;;;;;;;11.37;76.47;101025.78;5053259;28;19921;-61
2021/12/15 03:04:25;;;;;;;;;;;;;;;11.36;76.33;101010.91;5054552;28;20019;-60
2021/12/15 03:06:58;;;;;;;;;;;;;;;11.35;76.42;101023.22;5054622;28;19924;-61
2021/12/15 03:17:51;;;;;;;;;;;;;;;11.27;76.35;101020.91;5054502;28;19968;-60
2021/12/15 03:20:19;;;;;;;;;;;;;;;11.25;76.32;101017.44;5054239;28;19924;-60
2021/12/15 03:22:45;;;;;;;;;;;;;;;11.25;76.49;101013.97;5054089;28;19921;-60
2021/12/15 03:25:12;;;;;;;;;;;;;;;11.24;76.43;101012.22;5054245;28;19927;-60
2021/12/15 03:33:35;;;;;;;;;;;;;;;11.20;76.65;101012.38;5054227;28;19925;-60
2021/12/15 03:38:33;;;;;;;;;;;;;;;11.18;76.57;101013.34;5054145;28;19924;-60
2021/12/15 03:41:00;;;;;;;;;;;;;;;11.17;76.46;101023.03;5053882;28;19967;-61
2021/12/15 03:43:27;;;;;;;;;;;;;;;11.17;76.46;101030.06;5052928;28;19927;-61
2021/12/15 03:45:57;;;;;;;;;;;;;;;11.16;76.61;101023.09;5053856;28;19929;-59
2021/12/15 03:48:25;;;;;;;;;;;;;;;11.16;76.57;101015.19;5052449;28;19932;-61
2021/12/15 03:50:53;;;;;;;;;;;;;;;11.16;76.42;101015.19;5053539;28;19920;-60
2021/12/15 03:53:19;;;;;;;;;;;;;;;11.15;76.76;101016.09;5053908;28;19932;-61
2021/12/15 03:55:46;;;;;;;;;;;;;;;11.16;76.74;101017.81;5052469;28;20015;-59
2021/12/15 03:58:14;;;;;;;;;;;;;;;11.14;76.49;101017.88;5053372;28;19927;-60
2021/12/15 04:00:47;;;;;;;;;;;;;;;11.14;76.57;101009.97;5053869;28;20331;-59
2021/12/15 04:03:17;;;;;;;;;;;;;;;11.15;76.51;101013.47;5053471;28;19928;-62
2021/12/15 04:05:43;;;;;;;;;;;;;;;11.14;76.68;101022.31;5053507;28;19986;-61
2021/12/15 04:08:10;;;;;;;;;;;;;;;11.13;76.68;101024.06;5053553;28;19924;-59
2021/12/15 04:10:36;;;;;;;;;;;;;;;11.13;76.73;101024.06;5052996;28;19967;-60
2021/12/15 04:13:04;;;;;;;;;;;;;;;11.13;76.83;101024.06;5053491;28;19921;-59
2021/12/15 04:15:42;;;;;;;;;;;;;;;11.15;76.72;101027.50;5053694;28;19932;-61
2021/12/15 04:18:09;;;;;;;;;;;;;;;11.17;76.81;101035.34;5053417;28;20376;-60
2021/12/15 04:20:37;;;;;;;;;;;;;;;11.17;76.84;101032.69;5052811;28;19925;-62
2021/12/15 04:23:05;;;;;;;;;;;;;;;11.18;76.83;101031.81;5051998;28;20342;-59
2021/12/15 04:25:33;;;;;;;;;;;;;;;11.18;76.74;101031.81;5052988;28;19928;-60
2021/12/15 04:28:11;;;;;;;;;;;;;;;11.19;76.87;101028.25;5053168;28;19928;-59
2021/12/15 04:30:39;;;;;;;;;;;;;;;11.20;76.97;101035.22;5051403;28;19936;-60
2021/12/15 04:33:13;;;;;;;;;;;;;;;11.20;76.97;101040.50;5053041;28;19920;-59
2021/12/15 04:35:40;;;;;;;;;;;;;;;11.20;76.83;101049.28;5051942;28;19920;-59
2021/12/15 04:38:07;;;;;;;;;;;;;;;11.22;76.70;101041.31;5053253;28;19983;-59
2021/12/15 04:40:34;;;;;;;;;;;;;;;11.22;76.56;101043.94;5052505;28;19948;-59
2021/12/15 04:43:01;;;;;;;;;;;;;;;11.22;76.36;101041.31;5053067;28;20015;-60
2021/12/15 04:45:27;;;;;;;;;;;;;;;11.21;76.61;101040.44;5052637;28;19971;-60
2021/12/15 04:47:54;;;;;;;;;;;;;;;11.20;76.51;101041.38;5052814;28;19951;-60
2021/12/15 04:50:22;;;;;;;;;;;;;;;11.19;76.60;101034.38;5052375;28;19920;-61
2021/12/15 04:52:50;;;;;;;;;;;;;;;11.19;76.64;101041.41;5052746;28;20289;-59
2021/12/15 04:55:17;;;;;;;;;;;;;;;11.18;76.55;101047.63;5052447;28;20391;-62
2021/12/15 04:57:44;;;;;;;;;;;;;;;11.18;76.61;101043.19;5052827;28;19924;-61
2021/12/15 05:00:13;;;;;;;;;;;;;;;11.16;76.53;101046.81;5052251;28;19974;-61
2021/12/15 05:02:40;;;;;;;;;;;;;;;11.16;76.81;101044.16;5052557;28;19920;-60
2021/12/15 05:05:09;;;;;;;;;;;;;;;11.15;76.52;101048.59;5050992;28;19927;-60
2021/12/15 05:07:36;;;;;;;;;;;;;;;11.16;76.76;101054.72;5051264;28;20405;-60
2021/12/15 05:10:04;;;;;;;;;;;;;;;11.16;76.70;101046.81;5052322;28;19920;-60
2021/12/15 05:12:31;;;;;;;;;;;;;;;11.16;76.45;101050.31;5050898;28;19971;-60
2021/12/15 05:14:57;;;;;;;;;;;;;;;11.17;76.85;101051.16;5051696;28;19924;-60
2021/12/15 05:17:24;;;;;;;;;;;;;;;11.17;76.74;101051.16;5052014;28;19994;-61
2021/12/15 05:19:51;;;;;;;;;;;;;;;11.16;76.56;101060.84;5052074;28;19920;-59
2021/12/15 05:22:17;;;;;;;;;;;;;;;11.16;76.69;101057.34;5052503;28;19921;-60
2021/12/15 05:24:44;;;;;;;;;;;;;;;11.16;76.91;101065.25;5052106;28;20335;-60
2021/12/15 05:27:16;;;;;;;;;;;;;;;11.16;76.77;101065.25;5052050;28;19928;-59
2021/12/15 05:29:43;;;;;;;;;;;;;;;11.16;76.63;101062.63;5051746;28;19921;-59
2021/12/15 05:32:11;;;;;;;;;;;;;;;11.16;76.54;101067.88;5050279;28;19924;-61
2021/12/15 05:34:38;;;;;;;;;;;;;;;11.16;76.70;101065.25;5052009;28;20292;-61
2021/12/15 05:37:05;;;;;;;;;;;;;;;11.17;76.77;101064.31;5051915;28;19932;-60
2021/12/15 05:39:32;;;;;;;;;;;;;;;11.17;76.99;101067.81;5051497;28;19921;-60
2021/12/15 05:41:59;;;;;;;;;;;;;;;11.17;76.86;101059.06;5051605;28;19974;-60
2021/12/15 05:44:26;;;;;;;;;;;;;;;11.18;76.85;101068.69;5051615;28;19928;-61
2021/12/15 05:46:53;;;;;;;;;;;;;;;11.18;76.83;101072.19;5051612;28;19928;-60
2021/12/15 05:49:20;;;;;;;;;;;;;;;11.19;76.73;101075.69;5050087;28;20304;-60
2021/12/15 05:51:46;;;;;;;;;;;;;;;11.18;76.66;101069.53;5051596;28;19924;-61
2021/12/15 05:54:13;;;;;;;;;;;;;;;11.18;76.86;101076.59;5051713;28;19921;-59
2021/12/15 05:56:40;;;;;;;;;;;;;;;11.18;76.77;101068.69;5051385;28;19943;-59
2021/12/15 05:59:07;;;;;;;;;;;;;;;11.18;76.88;101073.97;5051070;28;19932;-65
2021/12/15 06:01:34;;;;;;;;;;;;;;;11.17;76.99;101078.38;5051565;28;19931;-59
2021/12/15 06:04:01;;;;;;;;;;;;;;;11.18;76.85;101082.72;5051232;28;19920;-59
2021/12/15 06:06:28;;;;;;;;;;;;;;;11.18;76.78;101074.81;5051379;28;19970;-61
2021/12/15 06:08:55;;;;;;;;;;;;;;;11.18;76.51;101081.88;5051165;28;19928;-60
2021/12/15 06:11:22;;;;;;;;;;;;;;;11.18;76.61;101081.88;5049674;28;20024;-59
2021/12/15 06:13:50;;;;;;;;;;;;;;;11.18;76.77;101089.78;5051043;28;19925;-62
2021/12/15 06:16:18;;;;;;;;;;;;;;;11.17;76.76;101091.56;5051224;28;19921;-60
2021/12/15 06:18:45;;;;;;;;;;;;;;;11.19;77.03;101092.38;5049801;28;19928;-59
2021/12/15 06:21:13;;;;;;;;;;;;;;;11.19;77.02;101087.09;5050957;28;19921;-60
2021/12/15 06:23:39;;;;;;;;;;;;;;;11.20;76.93;101088.81;5049754;28;19920;-60
2021/12/15 06:26:06;;;;;;;;;;;;;;;11.20;76.73;101087.94;5051043;28;19920;-59
2021/12/15 06:28:33;;;;;;;;;;;;;;;11.21;76.63;101092.28;5051039;28;19920;-60
2021/12/15 06:31:00;;;;;;;;;;;;;;;11.23;76.81;101094.88;5050885;28;19924;-61
2021/12/15 06:33:28;;;;;;;;;;;;;;;11.21;76.59;101103.69;5050631;28;19960;-62
2021/12/15 06:35:57;;;;;;;;;;;;;;;11.22;76.50;101101.94;5049417;28;20121;-60
2021/12/15 06:38:25;;;;;;;;;;;;;;;11.23;76.83;101097.50;5049486;28;19931;-61
2021/12/15 06:40:52;;;;;;;;;;;;;;;11.21;76.49;101100.19;5050638;28;19921;-60
2021/12/15 06:43:18;;;;;;;;;;;;;;;11.21;76.73;101102.81;5050823;28;19920;-60
2021/12/15 06:46:02;;;;;;;;;;;;;;;11.21;76.72;101110.72;5050934;28;20377;-60
2021/12/15 06:59:30;;;;;;;;;;;;;;;11.19;76.71;101115.22;5050237;28;20054;-61
2021/12/15 07:01:58;;;;;;;;;;;;;;;11.19;76.61;101117.84;5050500;28;19924;-61
2021/12/15 07:04:24;;;;;;;;;;;;;;;11.19;76.60;101123.13;5050486;28;19925;-59
2021/12/15 07:06:54;;;;;;;;;;;;;;;11.18;76.53;101118.78;5050637;28;19978;-63
2021/12/15 07:09:21;;;;;;;;;;;;;;;11.19;76.69;101123.13;5049058;28;19921;-60
2021/12/15 07:11:50;;;;;;;;;;;;;;;11.18;76.50;101119.63;5050549;28;19932;-61
2021/12/15 07:14:17;;;;;;;;;;;;;;;11.18;76.50;101126.69;5049251;28;19943;-60
2021/12/15 07:16:46;;;;;;;;;;;;;;;11.18;76.61;101121.41;5050502;28;19947;-62
2021/12/15 07:19:31;;;;;;;;;;;;;;;11.17;76.46;101128.44;5049023;28;20556;-59
2021/12/15 07:22:16;;;;;;;;;;;;;;;11.18;76.43;101127.53;5050132;28;19974;-61
2021/12/15 07:24:43;;;;;;;;;;;;;;;11.17;76.53;101120.53;5050552;28;20564;-60
2021/12/15 07:27:09;;;;;;;;;;;;;;;11.17;76.33;101127.56;5050323;28;20373;-60
2021/12/15 07:29:36;;;;;;;;;;;;;;;11.16;76.36;101124.09;5049984;28;19920;-62
2021/12/15 07:32:03;;;;;;;;;;;;;;;11.17;76.46;101122.31;5050446;28;19994;-60
2021/12/15 07:34:29;;;;;;;;;;;;;;;11.17;76.56;101131.09;5050279;28;19971;-62
2021/12/15 07:36:56;;;;;;;;;;;;;;;11.17;76.68;101133.72;5050611;28;19998;-60
2021/12/15 07:39:23;;;;;;;;;;;;;;;11.18;76.63;101129.31;5053250;28;19921;-61
2021/12/15 07:41:52;;;;;;;;;;;;;;;11.19;76.78;101138.94;5054015;28;20339;-60
2021/12/15 07:44:20;;;;;;;;;;;;;;;11.19;76.81;101134.53;5053880;28;19921;-60
2021/12/15 07:46:49;;;;;;;;;;;;;;;11.20;76.82;101138.00;5053985;28;19927;-60
2021/12/15 07:49:15;;;;;;;;;;;;;;;11.20;76.61;101140.66;5051621;28;19928;-60
2021/12/15 07:51:44;;;;;;;;;;;;;;;11.21;76.69;101134.44;5053711;28;19921;-60
2021/12/15 07:54:11;;;;;;;;;;;;;;;11.21;76.68;101137.09;5054070;28;19921;-60
2021/12/15 07:56:37;;;;;;;;;;;;;;;11.22;76.88;101138.84;5053601;28;19928;-60
2021/12/15 07:59:06;;;;;;;;;;;;;;;11.23;76.54;101140.53;5053497;28;19929;-66
2021/12/15 08:01:32;;;;;;;;;;;;;;;11.24;76.70;101144.00;5053464;28;19920;-62
2021/12/15 08:03:59;;;;;;;;;;;;;;;11.24;76.64;101147.53;5053721;28;19916;-62
2021/12/15 08:06:26;;;;;;;;;;;;;;;11.25;76.64;101149.25;5053406;28;19979;-60
2021/12/15 08:08:53;;;;;;;;;;;;;;;11.26;76.81;101140.44;5053622;28;19924;-61
2021/12/15 08:11:20;;;;;;;;;;;;;;;11.28;76.69;101148.25;5053079;28;20369;-60
2021/12/15 08:13:47;;;;;;;;;;;;;;;11.29;76.74;101153.47;5052012;28;19920;-60
2021/12/15 08:16:14;;;;;;;;;;;;;;;11.28;76.64;101149.13;5053137;28;19921;-59
2021/12/15 08:18:41;;;;;;;;;;;;;;;11.29;76.56;101150.00;5053187;28;20361;-60
2021/12/15 08:21:08;;;;;;;;;;;;;;;11.28;76.37;101143.00;5053150;28;19920;-59
2021/12/15 08:23:35;;;;;;;;;;;;;;;11.28;76.40;101154.41;5052364;28;19928;-63
2021/12/15 08:26:03;;;;;;;;;;;;;;;11.29;76.37;101153.47;5053190;28;19928;-60
2021/12/15 08:28:29;;;;;;;;;;;;;;;11.29;76.55;101156.13;5052962;28;19983;-62
2021/12/15 08:30:56;;;;;;;;;;;;;;;11.28;76.26;101158.81;5052948;28;19952;-60
2021/12/15 08:33:23;;;;;;;;;;;;;;;11.28;76.36;101169.34;5051712;28;19920;-60
2021/12/15 08:35:53;;;;;;;;;;;;;;;11.28;76.25;101166.72;5053399;28;20262;-61
2021/12/15 08:38:20;;;;;;;;;;;;;;;11.28;76.32;101166.72;5052887;28;20015;-61
2021/12/15 08:40:47;;;;;;;;;;;;;;;11.28;76.58;101169.34;5052525;28;19924;-60
2021/12/15 08:43:14;;;;;;;;;;;;;;;11.28;76.57;101164.94;5052914;28;20505;-60
2021/12/15 08:45:42;;;;;;;;;;;;;;;11.30;76.67;101168.41;5051562;28;20440;-60
2021/12/15 08:48:09;;;;;;;;;;;;;;;11.31;76.75;101171.88;5052809;28;19928;-60
2021/12/15 08:50:37;;;;;;;;;;;;;;;11.33;76.71;101175.34;5051356;28;19931;-64
2021/12/15 08:53:05;;;;;;;;;;;;;;;11.33;76.74;101176.16;5052673;28;19924;-62
2021/12/15 08:55:32;;;;;;;;;;;;;;;11.34;76.43;101182.31;5052587;28;19970;-60
2021/12/15 08:58:00;;;;;;;;;;;;;;;11.34;76.50;101191.06;5052404;28;19925;-61
2021/12/15 09:00:26;;;;;;;;;;;;;;;11.34;76.41;101182.31;5052129;28;19928;-59
2021/12/15 09:02:54;;;;;;;;;;;;;;;11.35;76.39;101189.31;5052319;28;19920;-59
2021/12/15 09:05:22;;;;;;;;;;;;;;;11.37;76.41;101181.34;5051272;28;19921;-62
2021/12/15 09:07:51;;;;;;;;;;;;;;;11.37;76.55;101179.56;5051208;28;19932;-61
2021/12/15 09:10:18;;;;;;;;;;;;;;;11.38;76.74;101183.06;5050815;28;19963;-60
2021/12/15 09:12:45;;;;;;;;;;;;;;;11.40;76.52;101184.72;5052084;28;19943;-60
2021/12/15 09:15:12;;;;;;;;;;;;;;;11.41;76.71;101182.94;5052236;28;19975;-61
2021/12/15 09:17:38;;;;;;;;;;;;;;;11.41;76.68;101183.81;5052233;28;19921;-60
2021/12/15 09:20:08;;;;;;;;;;;;;;;11.43;76.79;101183.72;5051898;28;19950;-59
2021/12/15 09:22:35;;;;;;;;;;;;;;;11.45;76.70;101180.13;5052055;28;19928;-61
2021/12/15 09:25:02;;;;;;;;;;;;;;;11.46;76.30;101175.72;5052328;28;19928;-60
2021/12/15 09:27:29;;;;;;;;;;;;;;;11.46;76.07;101181.00;5052092;28;19924;-61
2021/12/15 09:29:55;;;;;;;;;;;;;;;11.46;76.26;101188.91;5051711;28;19924;-61
2021/12/15 09:32:22;;;;;;;;;;;;;;;11.48;76.14;101192.34;5052087;28;19921;-60
2021/12/15 09:34:49;;;;;;;;;;;;;;;11.49;76.26;101186.16;5052021;28;19921;-60
2021/12/15 09:37:18;;;;;;;;;;;;;;;11.51;76.46;101186.09;5051851;28;19927;-60
2021/12/15 09:39:44;;;;;;;;;;;;;;;11.51;76.39;101186.94;5050096;28;19924;-61
2021/12/15 09:42:23;;;;;;;;;;;;;;;11.51;76.34;101186.94;5051650;28;19924;-59
2021/12/15 09:44:53;;;;;;;;;;;;;;;11.53;76.72;101190.41;5051769;28;20331;-60
2021/12/15 09:47:38;;;;;;;;;;;;;;;11.54;76.49;101192.09;5051919;28;19924;-60
2021/12/15 10:04:15;;;;;;;;;;;;;;;11.56;76.36;101200.81;5051552;28;19921;-61
2021/12/15 10:17:48;;;;;;;;;;;;;;;11.62;76.56;101190.97;5051077;28;19921;-60
2021/12/15 10:20:24;;;;;;;;;;;;;;;11.63;76.50;101192.69;5050948;28;19920;-59
2021/12/15 10:22:56;;;;;;;;;;;;;;;11.63;76.37;101190.03;5051218;28;19921;-60
2021/12/15 10:25:25;;;;;;;;;;;;;;;11.62;76.33;101202.34;5051104;28;19925;-60
2021/12/15 10:27:53;;;;;;;;;;;;;;;11.62;76.41;101196.25;5050930;28;19934;-60
2021/12/15 10:30:24;;;;;;;;;;;;;;;11.63;76.37;101203.22;5050751;28;19928;-60
2021/12/15 10:33:01;;;;;;;;;;;;;;;11.62;76.37;101196.25;5050929;28;19921;-59
2021/12/15 10:35:29;;;;;;;;;;;;;;;11.63;76.63;101196.19;5050870;28;20445;-60
2021/12/15 10:38:18;;;;;;;;;;;;;;;11.63;76.47;101188.28;5050896;28;19920;-60
2021/12/15 10:40:49;;;;;;;;;;;;;;;11.63;76.70;101204.09;5050678;28;19924;-60
2021/12/15 10:43:16;;;;;;;;;;;;;;;11.65;76.56;101209.28;5050157;28;19927;-60
2021/12/15 10:45:45;;;;;;;;;;;;;;;11.66;76.42;101200.47;5050940;28;20431;-60
2021/12/15 10:48:23;;;;;;;;;;;;;;;11.67;76.56;101199.56;5049541;28;20340;-60
2021/12/15 10:50:50;;;;;;;;;;;;;;;11.66;76.24;101201.31;5049343;28;19974;-61
2021/12/15 10:53:29;;;;;;;;;;;;;;;11.67;76.42;101203.03;5050916;28;19925;-60
2021/12/15 10:55:55;;;;;;;;;;;;;;;11.67;76.55;101203.03;5050976;28;19931;-59
2021/12/15 10:58:36;;;;;;;;;;;;;;;11.67;76.57;101202.19;5049611;28;19920;-58
2021/12/15 11:01:06;;;;;;;;;;;;;;;11.67;76.40;101199.56;5050430;28;19928;-60
2021/12/15 11:03:37;;;;;;;;;;;;;;;11.68;76.24;101202.13;5050963;28;20019;-60
2021/12/15 11:06:19;;;;;;;;;;;;;;;11.68;76.49;101191.59;5049472;28;19925;-60
2021/12/15 11:08:46;;;;;;;;;;;;;;;11.69;76.68;101195.94;5050741;28;19983;-60
2021/12/15 11:11:23;;;;;;;;;;;;;;;11.71;76.80;101198.53;5050325;28;19943;-60
2021/12/15 11:13:50;;;;;;;;;;;;;;;11.73;76.65;101201.94;5052944;28;20026;-60
2021/12/15 11:16:26;;;;;;;;;;;;;;;11.75;76.62;101197.47;5054289;28;19928;-61
2021/12/15 11:18:53;;;;;;;;;;;;;;;11.77;76.55;101202.72;5054405;28;20392;-60
2021/12/15 11:21:20;;;;;;;;;;;;;;;11.78;76.63;101194.69;5053789;28;19920;-61
2021/12/15 11:23:54;;;;;;;;;;;;;;;11.80;76.71;101194.66;5054398;28;19932;-59
2021/12/15 11:26:20;;;;;;;;;;;;;;;11.82;76.58;101200.75;5054362;28;19940;-61
2021/12/15 11:28:49;;;;;;;;;;;;;;;11.82;76.27;101201.59;5054288;28;19925;-61
2021/12/15 11:31:28;;;;;;;;;;;;;;;11.82;76.24;101192.81;5054274;28;20337;-60
2021/12/15 11:33:57;;;;;;;;;;;;;;;11.82;76.32;101198.09;5052763;28;20356;-58
2021/12/15 11:36:26;;;;;;;;;;;;;;;11.82;76.11;101187.56;5054072;28;19925;-61
2021/12/15 11:38:59;;;;;;;;;;;;;;;11.80;75.63;101182.34;5052587;28;19925;-59
2021/12/15 11:41:32;;;;;;;;;;;;;;;11.81;76.04;101181.41;5053775;28;19921;-58
2021/12/15 11:44:01;;;;;;;;;;;;;;;11.80;76.00;101181.47;5052611;28;20317;-61
2021/12/15 11:46:35;;;;;;;;;;;;;;;11.79;75.91;101180.63;5053949;28;20154;-61
2021/12/15 11:49:05;;;;;;;;;;;;;;;11.80;76.02;101181.47;5053854;28;19925;-62
2021/12/15 11:51:54;;;;;;;;;;;;;;;11.79;76.13;101175.34;5053916;28;20455;-62
2021/12/15 11:54:32;;;;;;;;;;;;;;;11.80;76.38;101179.69;5046989;28;19920;-59
2021/12/15 11:57:06;;;;;;;;;;;;;;;11.82;76.52;101177.84;5052420;28;19936;-62
2021/12/15 11:59:44;;;;;;;;;;;;;;;11.82;76.17;101174.34;5053357;28;19924;-60
2021/12/15 12:02:28;;;;;;;;;;;;;;;11.83;76.31;101171.66;5053717;28;19920;-59
2021/12/15 12:05:00;;;;;;;;;;;;;;;11.84;76.00;101183.06;5052463;28;19928;-59
2021/12/15 12:07:39;;;;;;;;;;;;;;;11.83;76.00;101187.50;5053556;28;19921;-60
2021/12/15 12:10:12;;;;;;;;;;;;;;;11.84;76.06;101183.06;5053025;28;19921;-59
2021/12/15 12:12:49;;;;;;;;;;;;;;;11.85;76.03;101190.91;5053758;28;19932;-60
2021/12/15 12:15:17;;;;;;;;;;;;;;;11.85;75.99;101177.72;5053493;28;20369;-59
2021/12/15 12:17:44;;;;;;;;;;;;;;;11.84;75.85;101186.56;5053542;28;19929;-60
2021/12/15 12:20:11;;;;;;;;;;;;;;;11.84;75.81;101183.06;5051664;28;19943;-61
2021/12/15 12:22:39;;;;;;;;;;;;;;;11.85;75.83;101182.16;5053245;28;19921;-60
2021/12/15 12:25:08;;;;;;;;;;;;;;;11.84;75.79;101177.78;5052003;28;19924;-60
2021/12/15 12:27:35;;;;;;;;;;;;;;;11.86;76.19;101174.16;5052079;28;19925;-60
2021/12/15 12:30:05;;;;;;;;;;;;;;;11.89;76.41;101175.81;5052898;28;19974;-61
2021/12/15 12:32:31;;;;;;;;;;;;;;;11.90;76.05;101172.28;5053270;28;19928;-59
2021/12/15 12:34:58;;;;;;;;;;;;;;;11.91;76.03;101171.34;5053069;28;20369;-59
2021/12/15 12:37:25;;;;;;;;;;;;;;;11.92;75.78;101173.06;5052912;28;19924;-62
2021/12/15 12:39:56;;;;;;;;;;;;;;;11.93;75.91;101166.84;5052873;28;19978;-61
2021/12/15 12:42:30;;;;;;;;;;;;;;;11.93;75.64;101166.84;5051777;28;20284;-59
2021/12/15 12:45:14;;;;;;;;;;;;;;;11.96;76.13;101160.63;5051733;28;19927;-62
2021/12/15 12:48:00;;;;;;;;;;;;;;;11.96;75.61;101158.81;5051699;28;19928;-61
2021/12/15 13:01:14;;;;;;;;;;;;;;;12.02;75.80;101156.84;5052254;28;19925;-61
2021/12/15 13:03:44;;;;;;;;;;;;;;;12.04;75.57;101157.66;5052642;28;20289;-61
2021/12/15 13:06:12;;;;;;;;;;;;;;;12.05;75.36;101157.63;5051179;28;19974;-59
2021/12/15 13:08:45;;;;;;;;;;;;;;;12.06;75.73;101163.75;5051248;28;19925;-61
2021/12/15 13:11:17;;;;;;;;;;;;;;;12.05;74.94;101155.00;5052215;28;19924;-63
2021/12/15 13:13:50;;;;;;;;;;;;;;;12.06;74.95;101156.72;5051043;28;19924;-59
2021/12/15 13:16:48;;;;;;;;;;;;;;;12.06;74.84;101151.44;5052153;28;19925;-61
2021/12/15 13:19:23;;;;;;;;;;;;;;;12.08;75.49;101154.84;5047555;28;19921;-60
2021/12/15 13:22:19;;;;;;;;;;;;;;;12.07;74.93;101150.50;5050843;28;19921;-60
2021/12/15 13:30:31;;;;;;;;;;;;;;;12.11;75.36;101151.22;5051669;28;19928;-60
2021/12/15 13:33:05;;;;;;;;;;;;;;;12.11;75.30;101161.78;5051925;28;20385;-62
2021/12/15 13:35:37;;;;;;;;;;;;;;;12.13;75.66;101157.31;5051101;28;19925;-61
2021/12/15 13:38:04;;;;;;;;;;;;;;;12.14;75.23;101160.84;5051839;28;19963;-60
2021/12/15 13:40:50;;;;;;;;;;;;;;;12.16;75.44;101162.47;5051577;28;20253;-60
2021/12/15 13:43:35;;;;;;;;;;;;;;;12.17;75.41;101163.31;5051880;28;19966;-62
2021/12/15 13:46:02;;;;;;;;;;;;;;;12.17;75.46;101169.47;5051886;28;19925;-59
2021/12/15 13:48:47;;;;;;;;;;;;;;;12.18;75.38;101162.44;5051571;28;19932;-61
2021/12/15 13:51:14;;;;;;;;;;;;;;;12.18;75.22;101159.78;5051162;28;19928;-60
2021/12/15 13:53:41;;;;;;;;;;;;;;;12.18;74.88;101159.78;5050425;28;19928;-61
2021/12/15 13:56:07;;;;;;;;;;;;;;;12.18;74.79;101160.63;5051303;28;20347;-60
2021/12/15 13:58:34;;;;;;;;;;;;;;;12.18;74.68;101163.25;5051749;28;19927;-61
2021/12/15 14:01:03;;;;;;;;;;;;;;;12.17;74.36;101160.69;5051119;28;19924;-61
2021/12/15 14:03:40;;;;;;;;;;;;;;;12.16;74.46;101156.34;5051437;28;19966;-60
2021/12/15 14:06:12;;;;;;;;;;;;;;;12.14;73.98;101159.03;5051305;28;19928;-62
2021/12/15 14:08:41;;;;;;;;;;;;;;;12.11;74.49;101154.75;5051429;28;20413;-60
2021/12/15 14:11:16;;;;;;;;;;;;;;;12.12;74.85;101167.00;5050830;28;20254;-60
2021/12/15 14:13:53;;;;;;;;;;;;;;;12.13;75.05;101170.53;5050058;28;19920;-62
2021/12/15 14:16:38;;;;;;;;;;;;;;;12.12;74.59;101171.44;5050050;28;19921;-60